createdAt,value
2022-11-05T00:01:36.579Z,98522.48
2022-11-05T00:04:57.187Z,98524.90
2022-11-05T00:08:37.355Z,98538.73
2022-11-05T00:12:12.851Z,98539.36
2022-11-05T00:15:33.912Z,98535.44
2022-11-05T00:18:36.061Z,98535.06
2022-11-05T00:21:57.820Z,98534.98
2022-11-05T00:25:14.828Z,98541.17
2022-11-05T00:28:16.431Z,98548.42
2022-11-05T00:31:17.995Z,98549.45
2022-11-05T00:34:19.771Z,98546.30
2022-11-05T00:37:21.598Z,98552.69
2022-11-05T00:40:23.286Z,98556.23
2022-11-05T00:43:43.946Z,98555.63
2022-11-05T00:46:45.573Z,98546.38
2022-11-05T00:49:47.334Z,98551.52
2022-11-05T00:52:56.933Z,98551.30
2022-11-05T00:55:59.110Z,98550.45
2022-11-05T00:59:00.777Z,98549.91
2022-11-05T01:02:02.560Z,98545.98
2022-11-05T01:05:04.856Z,98543.36
2022-11-05T01:08:06.807Z,98541.02
2022-11-05T01:11:35.415Z,98537.17
2022-11-05T01:14:37.136Z,98543.27
2022-11-05T01:17:38.875Z,98552.98
2022-11-05T01:20:40.915Z,98559.67
2022-11-05T01:23:42.625Z,98559.73
2022-11-05T01:26:44.666Z,98554.19
2022-11-05T01:29:46.342Z,98548.61
2022-11-05T01:32:48.061Z,98549.83
2022-11-05T01:35:51.901Z,98551.80
2022-11-05T01:38:53.852Z,98551.66
2022-11-05T01:41:55.573Z,98548.36
2022-11-05T01:45:03.231Z,98553.73
2022-11-05T01:48:09.514Z,98552.06
2022-11-05T01:51:14.548Z,98550.59
2022-11-05T01:54:21.222Z,98558.05
2022-11-05T01:57:23.637Z,98571.67
2022-11-05T02:00:25.567Z,98583.98
2022-11-05T02:03:27.391Z,98586.86
2022-11-05T02:06:30.477Z,98594.02
2022-11-05T02:09:39.522Z,98592.58
2022-11-05T02:12:44.089Z,98600.07
2022-11-05T02:15:49.619Z,98602.61
2022-11-05T02:19:16.380Z,98600.56
2022-11-05T02:22:44.803Z,98599.73
2022-11-05T02:26:11.263Z,98598.84
2022-11-05T02:29:39.980Z,98608.16
2022-11-05T02:33:00.381Z,98617.41
2022-11-05T02:36:50.766Z,98614.09
2022-11-05T02:40:34.557Z,98611.11
2022-11-05T02:44:14.842Z,98620.27
2022-11-05T02:47:26.552Z,98623.75
2022-11-05T02:50:34.456Z,98627.84
2022-11-05T02:53:46.282Z,98634.33
2022-11-05T02:56:50.268Z,98648.35
2022-11-05T03:00:42.471Z,98647.77
2022-11-05T03:03:48.805Z,98650.98
2022-11-05T03:06:59.782Z,98659.49
2022-11-05T03:10:22.649Z,98669.88
2022-11-05T03:13:34.316Z,98675.13
2022-11-05T03:16:39.964Z,98685.48
2022-11-05T03:19:54.550Z,98694.35
2022-11-05T03:23:19.381Z,98699.29
2022-11-05T03:26:29.353Z,98706.04
2022-11-05T03:29:37.716Z,98712.31
2022-11-05T03:32:43.768Z,98718.96
2022-11-05T03:35:52.482Z,98718.98
2022-11-05T03:38:56.025Z,98723.25
2022-11-05T03:41:58.259Z,98721.56
2022-11-05T03:45:03.679Z,98728.94
2022-11-05T03:48:06.939Z,98732.98
2022-11-05T03:51:21.520Z,98740.44
2022-11-05T03:54:23.194Z,98746.73
2022-11-05T03:57:29.020Z,98751.25
2022-11-05T04:00:30.973Z,98757.30
2022-11-05T04:03:36.750Z,98759.14
2022-11-05T04:06:57.305Z,98758.80
2022-11-05T04:10:17.540Z,98763.60
2022-11-05T04:13:24.961Z,98765.41
2022-11-05T04:16:45.418Z,98766.20
2022-11-05T04:20:06.330Z,98769.33
2022-11-05T04:23:26.808Z,98768.90
2022-11-05T04:26:28.537Z,98768.21
2022-11-05T04:29:48.717Z,98773.56
2022-11-05T04:33:02.584Z,98783.86
2022-11-05T04:36:04.515Z,98786.22
2022-11-05T04:39:06.205Z,98785.38
2022-11-05T04:42:07.897Z,98780.85
2022-11-05T04:45:09.608Z,98783.13
2022-11-05T04:48:12.239Z,98784.84
2022-11-05T04:51:13.992Z,98786.67
2022-11-05T04:54:15.594Z,98786.41
2022-11-05T04:57:17.360Z,98788.63
2022-11-05T05:00:20.168Z,98792.16
2022-11-05T05:03:21.797Z,98794.40
2022-11-05T05:06:24.335Z,98800.49
2022-11-05T05:09:25.891Z,98807.79
2022-11-05T05:12:27.547Z,98810.80
2022-11-05T05:15:29.128Z,98816.64
2022-11-05T05:18:30.847Z,98818.02
2022-11-05T05:21:42.425Z,98820.69
2022-11-05T05:24:48.600Z,98819.92
2022-11-05T05:27:53.790Z,98828.11
2022-11-05T05:30:59.720Z,98835.79
2022-11-05T05:34:01.419Z,98829.45
2022-11-05T05:37:03.095Z,98830.54
2022-11-05T05:40:05.461Z,98837.02
2022-11-05T05:43:07.163Z,98844.42
2022-11-05T05:46:11.902Z,98848.23
2022-11-05T05:49:13.812Z,98849.67
2022-11-05T05:52:15.408Z,98859.73
2022-11-05T05:55:17.144Z,98864.67
2022-11-05T05:58:18.873Z,98868.44
2022-11-05T06:01:21.349Z,98873.13
2022-11-05T06:04:23.153Z,98877.98
2022-11-05T06:07:25.125Z,98878.94
2022-11-05T06:10:26.926Z,98876.77
2022-11-05T06:13:28.653Z,98877.97
2022-11-05T06:16:35.798Z,98885.67
2022-11-05T06:22:57.599Z,98887.48
2022-11-05T06:26:02.934Z,98896.24
2022-11-05T06:29:04.614Z,98906.38
2022-11-05T06:32:06.222Z,98908.48
2022-11-05T06:35:08.047Z,98918.69
2022-11-05T06:38:09.658Z,98920.17
2022-11-05T06:41:11.456Z,98923.29
2022-11-05T06:44:13.063Z,98927.25
2022-11-05T06:47:14.772Z,98931.60
2022-11-05T06:50:16.836Z,98936.90
2022-11-05T06:53:18.957Z,98940.60
2022-11-05T06:56:20.733Z,98944.98
2022-11-05T06:59:22.474Z,98948.08
2022-11-05T07:02:24.209Z,98954.08
2022-11-05T07:05:25.885Z,98954.48
2022-11-05T07:08:32.302Z,98956.92
2022-11-05T07:11:33.935Z,98956.65
2022-11-05T07:14:35.680Z,98956.49
2022-11-05T07:17:37.872Z,98962.48
2022-11-05T07:20:40.138Z,98974.38
2022-11-05T07:23:41.745Z,98985.95
2022-11-05T07:26:43.703Z,98984.05
2022-11-05T07:29:45.696Z,98991.17
2022-11-05T07:32:47.244Z,98992.39
2022-11-05T07:35:48.859Z,98992.91
2022-11-05T07:38:50.522Z,98994.33
2022-11-05T07:41:54.976Z,98995.09
2022-11-05T07:44:56.650Z,98997.78
2022-11-05T07:48:01.009Z,99002.39
2022-11-05T07:51:02.770Z,99005.09
2022-11-05T07:54:04.868Z,99003.04
2022-11-05T07:57:06.525Z,99002.42
2022-11-05T08:00:09.497Z,99001.84
2022-11-05T08:03:15.907Z,98999.84
2022-11-05T08:06:17.793Z,99003.91
2022-11-05T08:09:19.415Z,99001.77
2022-11-05T08:12:21.524Z,99007.73
2022-11-05T08:15:23.911Z,99005.15
2022-11-05T08:18:31.564Z,99009.00
2022-11-05T08:21:33.221Z,99009.66
2022-11-05T08:24:34.856Z,99008.93
2022-11-05T08:27:36.493Z,99010.95
2022-11-05T08:30:38.247Z,99013.25
2022-11-05T08:33:39.940Z,99016.76
2022-11-05T08:36:43.399Z,99021.52
2022-11-05T08:39:45.079Z,99026.92
2022-11-05T08:42:46.886Z,99030.39
2022-11-05T08:45:48.647Z,99024.27
2022-11-05T08:48:50.424Z,99025.08
2022-11-05T08:51:51.989Z,99031.48
2022-11-05T08:54:53.697Z,99044.08
2022-11-05T08:57:58.951Z,99053.16
2022-11-05T09:01:04.983Z,99054.86
2022-11-05T09:04:07.096Z,99057.98
2022-11-05T09:07:08.992Z,99056.90
2022-11-05T09:10:10.889Z,99060.99
2022-11-05T09:13:18.329Z,99060.37
2022-11-05T09:16:25.903Z,99061.98
2022-11-05T09:19:27.528Z,99065.49
2022-11-05T09:22:29.215Z,99067.06
2022-11-05T09:25:30.993Z,99072.73
2022-11-05T09:28:33.330Z,99076.61
2022-11-05T09:31:34.957Z,99082.89
2022-11-05T09:34:36.797Z,99083.11
2022-11-05T09:37:38.656Z,99082.79
2022-11-05T09:41:02.075Z,99085.66
2022-11-05T09:44:10.052Z,99088.25
2022-11-05T09:47:16.387Z,99089.32
2022-11-05T09:50:44.912Z,99088.66
2022-11-05T09:53:46.847Z,99093.42
2022-11-05T09:56:48.718Z,99099.30
2022-11-05T10:00:02.820Z,99092.04
2022-11-05T10:03:07.555Z,99093.23
2022-11-05T10:06:13.326Z,99097.88
2022-11-05T10:09:19.806Z,99102.98
2022-11-05T10:12:46.670Z,99101.85
2022-11-05T10:16:25.618Z,99102.95
2022-11-05T10:19:36.483Z,99106.58
2022-11-05T10:22:38.496Z,99111.41
2022-11-05T10:26:10.882Z,99116.05
2022-11-05T10:29:14.888Z,99113.32
2022-11-05T10:32:38.179Z,99116.23
2022-11-05T10:35:47.481Z,99116.59
2022-11-05T10:38:49.374Z,99115.11
2022-11-05T10:42:08.339Z,99118.89
2022-11-05T10:45:27.131Z,99124.17
2022-11-05T10:48:50.912Z,99129.61
2022-11-05T10:51:56.942Z,99131.32
2022-11-05T10:55:01.282Z,99133.06
2022-11-05T10:58:15.405Z,99134.52
2022-11-05T11:01:24.625Z,99132.23
2022-11-05T11:04:27.377Z,99136.25
2022-11-05T11:07:29.310Z,99135.56
2022-11-05T11:10:35.024Z,99139.98
2022-11-05T11:13:51.104Z,99143.31
2022-11-05T11:16:57.474Z,99146.38
2022-11-05T11:20:29.518Z,99145.91
2022-11-05T11:23:37.000Z,99143.32
2022-11-05T11:26:40.012Z,99144.27
2022-11-05T11:29:48.959Z,99143.86
2022-11-05T11:32:51.275Z,99142.98
2022-11-05T11:35:53.000Z,99148.14
2022-11-05T11:39:05.771Z,99148.40
2022-11-05T11:42:46.589Z,99154.08
2022-11-05T11:45:50.033Z,99155.18
2022-11-05T11:48:51.728Z,99154.77
2022-11-05T11:51:55.222Z,99157.02
2022-11-05T11:55:12.436Z,99158.77
2022-11-05T11:58:14.263Z,99157.59
2022-11-05T12:01:54.018Z,99165.84
2022-11-05T12:05:16.168Z,99166.34
2022-11-05T12:08:45.250Z,99172.46
2022-11-05T12:11:50.450Z,99177.27
2022-11-05T12:14:57.967Z,99177.06
2022-11-05T12:18:03.124Z,99176.39
2022-11-05T12:21:52.060Z,99183.36
2022-11-05T12:25:08.936Z,99183.92
2022-11-05T12:28:20.883Z,99182.94
2022-11-05T12:31:28.754Z,99188.56
2022-11-05T12:35:01.925Z,99197.10
2022-11-05T12:38:03.520Z,99196.94
2022-11-05T12:41:05.106Z,99199.14
2022-11-05T12:44:21.495Z,99201.45
2022-11-05T12:47:47.949Z,99205.73
2022-11-05T12:51:04.636Z,99203.27
2022-11-05T12:54:19.654Z,99203.06
2022-11-05T12:57:22.605Z,99204.16
2022-11-05T13:00:26.345Z,99205.10
2022-11-05T13:03:39.420Z,99206.41
2022-11-05T13:06:43.498Z,99209.60
2022-11-05T13:09:55.875Z,99215.87
2022-11-05T13:13:13.937Z,99213.71
2022-11-05T13:16:33.471Z,99214.70
2022-11-05T13:19:36.897Z,99215.34
2022-11-05T13:23:07.396Z,99218.95
2022-11-05T13:26:20.173Z,99221.06
2022-11-05T13:29:26.957Z,99222.63
2022-11-05T13:32:35.254Z,99228.85
2022-11-05T13:36:39.994Z,99227.89
2022-11-05T13:39:46.604Z,99229.06
2022-11-05T13:43:07.772Z,99233.33
2022-11-05T13:46:28.290Z,99238.90
2022-11-05T13:49:36.290Z,99241.42
2022-11-05T13:52:59.649Z,99247.13
2022-11-05T13:56:32.702Z,99252.49
2022-11-05T14:00:00.190Z,99254.23
2022-11-05T14:03:07.213Z,99253.17
2022-11-05T14:06:10.363Z,99255.36
2022-11-05T14:09:18.742Z,99255.98
2022-11-05T14:12:34.574Z,99263.46
2022-11-05T14:15:36.630Z,99267.71
2022-11-05T14:18:43.007Z,99274.20
2022-11-05T14:21:53.287Z,99280.77
2022-11-05T14:24:55.102Z,99285.65
2022-11-05T14:27:58.444Z,99292.05
2022-11-05T14:31:01.129Z,99298.09
2022-11-05T14:34:08.723Z,99299.94
2022-11-05T14:37:13.455Z,99301.66
2022-11-05T14:40:21.412Z,99307.86
2022-11-05T14:43:25.230Z,99318.05
2022-11-05T14:46:41.114Z,99317.77
2022-11-05T14:49:53.095Z,99319.10
2022-11-05T14:52:57.856Z,99319.43
2022-11-05T14:56:03.598Z,99321.49
2022-11-05T14:59:23.679Z,99323.76
2022-11-05T15:02:32.392Z,99322.88
2022-11-05T15:05:53.333Z,99321.50
2022-11-05T15:09:00.951Z,99323.55
2022-11-05T15:12:09.303Z,99328.98
2022-11-05T15:15:28.609Z,99331.33
2022-11-05T15:18:34.195Z,99336.51
2022-11-05T15:21:36.488Z,99334.68
2022-11-05T15:24:38.771Z,99332.41
2022-11-05T15:28:05.538Z,99336.54
2022-11-05T15:31:13.345Z,99341.91
2022-11-05T15:34:29.017Z,99343.06
2022-11-05T15:37:30.711Z,99349.86
2022-11-05T15:40:33.291Z,99354.94
2022-11-05T15:43:34.892Z,99352.67
2022-11-05T15:46:36.628Z,99354.86
2022-11-05T15:49:38.335Z,99359.75
2022-11-05T15:52:48.682Z,99363.48
2022-11-05T15:55:54.834Z,99367.55
2022-11-05T15:59:03.884Z,99370.11
2022-11-05T16:02:24.605Z,99376.43
2022-11-05T16:05:29.297Z,99382.69
2022-11-05T16:08:31.631Z,99385.22
2022-11-05T16:11:33.477Z,99388.38
2022-11-05T16:14:35.609Z,99389.64
2022-11-05T16:17:40.098Z,99393.09
2022-11-05T16:20:41.771Z,99392.53
2022-11-05T16:23:57.515Z,99396.70
2022-11-05T16:27:03.067Z,99392.64
2022-11-05T16:30:05.740Z,99396.63
2022-11-05T16:33:07.907Z,99393.08
2022-11-05T16:36:09.845Z,99397.02
2022-11-05T16:39:11.599Z,99399.60
2022-11-05T16:42:33.306Z,99398.62
2022-11-05T16:45:40.122Z,99406.24
2022-11-05T16:48:42.892Z,99410.11
2022-11-05T16:51:45.080Z,99416.50
2022-11-05T16:54:46.927Z,99422.46
2022-11-05T16:57:54.182Z,99427.15
2022-11-05T17:01:08.236Z,99434.41
2022-11-05T17:04:13.029Z,99429.81
2022-11-05T17:07:14.755Z,99438.05
2022-11-05T17:10:16.555Z,99440.67
2022-11-05T17:13:19.628Z,99444.64
2022-11-05T17:16:21.339Z,99447.52
2022-11-05T17:19:22.944Z,99450.51
2022-11-05T17:22:24.633Z,99452.23
2022-11-05T17:25:26.501Z,99456.13
2022-11-05T17:28:29.198Z,99459.13
2022-11-05T17:31:31.021Z,99463.54
2022-11-05T17:34:32.734Z,99470.08
2022-11-05T17:37:34.651Z,99472.95
2022-11-05T17:40:37.172Z,99477.52
2022-11-05T17:43:38.996Z,99478.00
2022-11-05T17:46:40.832Z,99485.14
2022-11-05T17:49:42.616Z,99482.88
2022-11-05T17:52:44.763Z,99485.35
2022-11-05T17:55:47.247Z,99484.54
2022-11-05T17:58:48.912Z,99486.42
2022-11-05T18:01:50.727Z,99487.05
2022-11-05T18:04:52.653Z,99484.70
2022-11-05T18:07:55.666Z,99485.17
2022-11-05T18:10:57.479Z,99485.67
2022-11-05T18:13:59.294Z,99491.69
2022-11-05T18:17:01.072Z,99497.31
2022-11-05T18:20:03.896Z,99504.12
2022-11-05T18:23:05.998Z,99508.27
2022-11-05T18:26:12.208Z,99509.31
2022-11-05T18:29:14.122Z,99514.23
2022-11-05T18:32:15.695Z,99521.81
2022-11-05T18:35:17.227Z,99522.00
2022-11-05T18:38:18.823Z,99529.19
2022-11-05T18:41:21.015Z,99525.46
2022-11-05T18:44:24.794Z,99523.86
2022-11-05T18:47:26.426Z,99522.94
2022-11-05T18:50:28.442Z,99525.31
2022-11-05T18:53:30.125Z,99529.04
2022-11-05T18:56:31.995Z,99532.39
2022-11-05T18:59:39.031Z,99533.23
2022-11-05T19:02:41.406Z,99538.52
2022-11-05T19:05:43.353Z,99539.72
2022-11-05T19:08:44.925Z,99546.53
2022-11-05T19:11:46.753Z,99543.98
2022-11-05T19:14:48.420Z,99547.52
2022-11-05T19:17:50.177Z,99553.79
2022-11-05T19:20:51.773Z,99552.64
2022-11-05T19:23:53.404Z,99559.55
2022-11-05T19:26:55.047Z,99562.70
2022-11-05T19:29:56.748Z,99559.79
2022-11-05T19:32:58.661Z,99566.27
2022-11-05T19:36:05.251Z,99566.61
2022-11-05T19:39:11.491Z,99568.81
2022-11-05T19:42:13.273Z,99573.83
2022-11-05T19:45:43.120Z,99579.05
2022-11-05T19:48:37.051Z,99586.97
2022-11-05T19:51:39.667Z,99590.67
2022-11-05T19:54:41.407Z,99596.26
2022-11-05T19:57:43.374Z,99599.69
2022-11-05T20:00:45.024Z,99608.58
2022-11-05T20:03:46.912Z,99617.13
2022-11-05T20:06:48.553Z,99620.86
2022-11-05T20:09:50.377Z,99626.17
2022-11-05T20:12:52.307Z,99626.98
2022-11-05T20:15:55.631Z,99629.17
2022-11-05T20:18:57.556Z,99629.87
2022-11-05T20:22:00.488Z,99629.09
2022-11-05T20:25:02.102Z,99630.50
2022-11-05T20:28:03.622Z,99631.59
2022-11-05T20:31:14.158Z,99632.41
2022-11-05T20:34:15.940Z,99638.96
2022-11-05T20:37:17.724Z,99643.07
2022-11-05T20:40:19.372Z,99647.73
2022-11-05T20:43:23.736Z,99654.59
2022-11-05T20:46:29.279Z,99656.23
2022-11-05T20:49:30.853Z,99661.18
2022-11-05T20:52:32.388Z,99668.04
2022-11-05T20:55:40.532Z,99672.42
2022-11-05T20:58:42.161Z,99674.10
2022-11-05T21:01:43.938Z,99679.27
2022-11-05T21:04:45.986Z,99682.83
2022-11-05T21:07:47.640Z,99686.61
2022-11-05T21:10:51.408Z,99686.78
2022-11-05T21:13:53.393Z,99687.27
2022-11-05T21:16:55.045Z,99682.45
2022-11-05T21:19:56.756Z,99687.34
2022-11-05T21:22:58.355Z,99690.02
2022-11-05T21:26:04.341Z,99683.55
2022-11-05T21:29:07.718Z,99682.29
2022-11-05T21:32:09.689Z,99679.27
2022-11-05T21:35:11.307Z,99681.89
2022-11-05T21:38:14.564Z,99678.95
2022-11-05T21:41:16.542Z,99684.05
2022-11-05T21:44:18.200Z,99679.16
2022-11-05T21:47:20.164Z,99681.40
2022-11-05T21:50:41.879Z,99683.20
2022-11-05T21:54:02.248Z,99687.77
2022-11-05T21:57:22.960Z,99686.12
2022-11-05T22:00:24.809Z,99687.48
2022-11-05T22:03:26.592Z,99685.90
2022-11-05T22:06:28.446Z,99691.61
2022-11-05T22:09:30.395Z,99692.24
2022-11-05T22:12:32.553Z,99694.95
2022-11-05T22:15:34.307Z,99698.33
2022-11-05T22:18:35.992Z,99698.10
2022-11-05T22:21:37.690Z,99698.15
2022-11-05T22:24:40.247Z,99695.23
2022-11-05T22:27:43.795Z,99700.95
2022-11-05T22:30:45.488Z,99703.20
2022-11-05T22:33:47.536Z,99705.45
2022-11-05T22:36:49.236Z,99706.66
2022-11-05T22:39:50.823Z,99709.63
2022-11-05T22:42:52.503Z,99710.17
2022-11-05T22:45:54.020Z,99707.65
2022-11-05T22:48:56.404Z,99710.89
2022-11-05T22:51:58.446Z,99712.58
2022-11-05T22:55:02.706Z,99712.19
2022-11-05T22:58:04.392Z,99710.05
2022-11-05T23:01:07.391Z,99714.22
2022-11-05T23:04:09.179Z,99717.84
2022-11-05T23:07:29.923Z,99717.36
2022-11-05T23:10:50.327Z,99721.97
2022-11-05T23:13:52.038Z,99717.86
2022-11-05T23:17:12.651Z,99718.70
2022-11-05T23:20:37.146Z,99714.77
2022-11-05T23:24:08.053Z,99710.79
2022-11-05T23:27:10.127Z,99710.13
2022-11-05T23:30:18.473Z,99715.61
2022-11-05T23:33:20.058Z,99716.65
2022-11-05T23:36:54.267Z,99714.02
2022-11-05T23:39:55.857Z,99713.44
2022-11-05T23:43:16.896Z,99719.19
2022-11-05T23:46:37.400Z,99721.07
2022-11-05T23:49:39.093Z,99725.29
2022-11-05T23:52:40.730Z,99723.30
2022-11-05T23:55:42.680Z,99725.67
2022-11-05T23:58:44.448Z,99728.53
